Time;durP1;ratioP1;P1;durP2;ratioP2;P2;SDS_P1;SDS_P2;PMS_P1;PMS_P2;Temp;Humidity;BMP_temperature;BMP_pressure;BME280_temperature;BME280_humidity;BME280_pressure;Samples;Min_cycle;Max_cycle;Signal;HPM_P1;HPM_P2
2023/09/21 00:01:03;;;;;;;4.78;2.88;;;;;;;18.37;68.00;98995.22;6206003;23;20120;-88
2023/09/21 00:03:30;;;;;;;5.05;2.88;;;;;;;18.37;67.74;98996.06;6131973;23;20091;-88
2023/09/21 00:05:57;;;;;;;6.30;2.88;;;;;;;18.33;67.93;98989.44;6181585;23;22880;-88
2023/09/21 00:08:24;;;;;;;5.70;3.30;;;;;;;18.36;67.75;98991.69;6205915;23;20519;-88
2023/09/21 00:10:52;;;;;;;4.88;3.00;;;;;;;18.37;67.75;98984.47;6180976;23;20020;-88
2023/09/21 00:13:20;;;;;;;6.07;3.38;;;;;;;18.36;67.74;98988.19;6131862;23;20075;-88
2023/09/21 00:15:50;;;;;;;4.40;2.72;;;;;;;18.31;67.90;98986.13;6156123;23;20071;-88
2023/09/21 00:18:21;;;;;;;6.90;2.90;;;;;;;18.30;67.64;98986.34;6181155;23;20048;-87
2023/09/21 00:20:52;;;;;;;8.88;3.35;;;;;;;18.29;67.82;98987.34;6157785;23;20353;-88
2023/09/21 00:23:24;;;;;;;4.75;2.97;;;;;;;18.27;67.71;98979.50;6231431;23;20041;-87
2023/09/21 00:26:00;;;;;;;5.00;2.58;;;;;;;18.24;67.54;98985.28;6157862;23;20530;-88
2023/09/21 00:28:28;;;;;;;4.35;3.13;;;;;;;18.28;67.62;98967.72;6181886;23;20047;-88
2023/09/21 00:30:57;;;;;;;6.85;2.60;;;;;;;18.24;67.71;98969.16;6205938;23;20353;-88
2023/09/21 00:33:26;;;;;;;5.40;2.85;;;;;;;18.23;67.64;98964.81;6181228;23;20032;-87
2023/09/21 00:35:55;;;;;;;4.63;2.78;;;;;;;18.21;67.70;98964.19;6180975;23;20376;-88
2023/09/21 00:38:24;;;;;;;5.50;2.95;;;;;;;18.20;67.79;98963.38;6181043;23;20333;-88
2023/09/21 00:40:56;;;;;;;7.40;3.80;;;;;;;18.15;67.85;98957.78;6181615;23;20405;-87
2023/09/21 00:43:24;;;;;;;5.70;3.22;;;;;;;18.15;67.89;98955.13;6205345;23;20028;-88
2023/09/21 00:45:53;;;;;;;7.95;2.80;;;;;;;18.16;68.10;98964.00;6180291;23;20392;-87
2023/09/21 00:48:25;;;;;;;5.03;2.83;;;;;;;18.15;68.17;98959.66;6155575;23;20024;-87
2023/09/21 00:50:54;;;;;;;7.53;3.00;;;;;;;18.14;68.28;98949.94;6206667;23;20017;-88
2023/09/21 00:53:22;;;;;;;5.40;3.08;;;;;;;18.11;68.35;98948.47;6155065;23;20334;-88
2023/09/21 00:55:54;;;;;;;5.20;2.80;;;;;;;18.05;68.41;98941.25;6155945;23;20055;-89
2023/09/21 00:58:23;;;;;;;5.50;2.60;;;;;;;18.09;68.11;98952.41;6155679;23;20044;-88
2023/09/21 01:00:50;;;;;;;4.45;3.10;;;;;;;18.09;68.17;98947.88;6155379;23;20099;-88
2023/09/21 01:03:17;;;;;;;5.40;3.00;;;;;;;18.05;67.93;98941.25;6180009;23;20024;-89
2023/09/21 01:05:45;;;;;;;5.35;3.00;;;;;;;18.03;67.92;98945.19;6155785;23;20021;-88
2023/09/21 01:08:17;;;;;;;3.10;2.40;;;;;;;17.99;67.82;98942.91;6180347;23;20108;-88
2023/09/21 01:10:49;;;;;;;4.43;2.70;;;;;;;17.96;67.79;98937.97;6181182;23;20410;-87
2023/09/21 01:13:17;;;;;;;2.85;2.38;;;;;;;17.93;67.99;98937.53;6180539;23;20074;-87
2023/09/21 01:16:03;;;;;;;4.60;2.83;;;;;;;17.83;67.75;98937.09;6155652;23;20028;-88
2023/09/21 01:18:31;;;;;;;4.30;3.20;;;;;;;17.91;68.15;98937.75;6155472;23;20024;-88
2023/09/21 01:21:04;;;;;;;5.15;2.72;;;;;;;17.98;67.66;98940.44;6178868;23;20020;-88
2023/09/21 01:23:39;;;;;;;4.25;2.60;;;;;;;17.95;67.28;98940.84;6180964;23;20021;-87
2023/09/21 01:26:06;;;;;;;7.70;2.97;;;;;;;17.98;67.54;98951.16;6204444;23;20465;-87
2023/09/21 01:28:33;;;;;;;4.45;2.67;;;;;;;17.95;67.62;98948.91;6154406;23;20463;-87
2023/09/21 01:31:00;;;;;;;4.43;2.63;;;;;;;17.94;67.92;98945.41;6155174;23;20356;-87
2023/09/21 01:33:27;;;;;;;7.00;2.65;;;;;;;17.91;67.89;98937.75;6154453;23;20396;-87
2023/09/21 01:35:55;;;;;;;4.10;2.60;;;;;;;17.89;67.53;98939.00;6179894;23;20079;-87
2023/09/21 01:38:27;;;;;;;5.00;2.80;;;;;;;17.89;67.65;98939.81;6180238;23;20028;-87
2023/09/21 01:40:54;;;;;;;7.17;2.67;;;;;;;17.87;67.84;98944.56;6181216;23;20096;-87
2023/09/21 01:43:21;;;;;;;2.90;2.53;;;;;;;17.85;67.92;98933.19;6204494;23;20021;-87
2023/09/21 01:45:49;;;;;;;3.75;2.50;;;;;;;17.82;67.99;98930.09;6180415;23;20047;-88
2023/09/21 01:48:18;;;;;;;4.03;2.63;;;;;;;17.84;67.90;98928.84;6155251;23;20032;-87
2023/09/21 01:50:48;;;;;;;3.42;2.60;;;;;;;17.83;68.07;98935.25;6131106;23;20020;-87
2023/09/21 01:53:17;;;;;;;3.78;3.03;;;;;;;17.84;68.05;98930.72;6155098;23;20032;-88
2023/09/21 01:55:47;;;;;;;3.60;2.60;;;;;;;17.80;68.18;98924.91;6180359;23;20319;-86
2023/09/21 01:58:15;;;;;;;2.90;2.42;;;;;;;17.79;68.05;98928.59;6130775;23;20024;-87
2023/09/21 02:00:43;;;;;;;4.55;2.40;;;;;;;17.79;68.34;98925.94;6180060;23;20016;-88
2023/09/21 02:03:12;;;;;;;6.07;2.92;;;;;;;17.73;68.79;98918.66;6154555;23;20024;-88
2023/09/21 02:05:40;;;;;;;3.17;2.42;;;;;;;17.72;68.52;98912.47;6154962;23;20024;-87
2023/09/21 02:08:08;;;;;;;3.92;2.58;;;;;;;17.68;69.02;98902.34;6203770;23;20078;-87
2023/09/21 02:10:36;;;;;;;6.20;2.58;;;;;;;17.72;68.88;98901.75;6179168;23;20478;-87
2023/09/21 02:13:06;;;;;;;4.07;2.80;;;;;;;17.71;68.98;98888.53;6154988;23;20083;-87
2023/09/21 02:15:35;;;;;;;6.13;2.72;;;;;;;17.69;68.94;98895.97;6180040;23;20051;-88
2023/09/21 02:18:02;;;;;;;3.70;2.20;;;;;;;17.64;69.19;98890.38;6130549;23;20032;-87
2023/09/21 02:20:31;;;;;;;5.47;2.65;;;;;;;17.66;69.17;98891.81;6180293;23;20448;-87
2023/09/21 02:23:00;;;;;;;5.35;3.28;;;;;;;17.61;69.52;98882.75;6180143;23;20376;-86
2023/09/21 02:25:31;;;;;;;4.43;2.70;;;;;;;17.64;69.57;98876.97;6181481;23;20020;-88
2023/09/21 02:27:57;;;;;;;3.65;2.72;;;;;;;17.61;69.70;98872.00;6155269;23;20392;-86
2023/09/21 02:30:25;;;;;;;3.80;2.45;;;;;;;17.61;69.66;98880.88;6204341;23;20028;-86
2023/09/21 02:32:53;;;;;;;4.95;2.50;;;;;;;17.63;69.98;98883.34;6180451;23;20449;-87
2023/09/21 02:35:28;;;;;;;3.70;2.55;;;;;;;17.62;70.01;98879.84;6130495;23;20104;-87
2023/09/21 02:37:56;;;;;;;5.32;3.10;;;;;;;17.65;69.93;98873.22;6205430;23;20047;-87
2023/09/21 02:40:24;;;;;;;6.30;2.88;;;;;;;17.67;69.61;98872.00;6204135;23;20389;-87
2023/09/21 02:42:52;;;;;;;6.68;3.03;;;;;;;17.68;69.25;98868.28;6154976;23;20422;-89
2023/09/21 02:45:21;;;;;;;6.03;2.85;;;;;;;17.67;69.68;98869.31;6154348;23;20100;-87
2023/09/21 02:47:49;;;;;;;6.07;2.70;;;;;;;17.68;69.93;98870.97;6180059;23;20021;-88
2023/09/21 02:50:20;;;;;;;5.07;2.65;;;;;;;17.67;69.74;98865.81;6155172;23;20040;-87
2023/09/21 02:52:54;;;;;;;4.60;2.72;;;;;;;17.67;69.69;98868.50;6180153;23;20116;-88
2023/09/21 02:55:24;;;;;;;3.67;2.53;;;;;;;17.68;69.79;98873.66;6205023;23;20123;-86
2023/09/21 02:57:58;;;;;;;6.82;2.45;;;;;;;17.62;69.40;98860.22;6154955;23;20094;-87
2023/09/21 03:00:27;;;;;;;3.78;2.28;;;;;;;17.62;69.37;98858.34;6155171;23;20025;-87
2023/09/21 03:02:55;;;;;;;5.43;2.85;;;;;;;17.65;69.27;98855.25;6179149;23;20024;-87
2023/09/21 03:05:24;;;;;;;4.80;2.70;;;;;;;17.66;69.22;98851.56;6154040;23;20043;-87
2023/09/21 03:07:51;;;;;;;4.22;2.47;;;;;;;17.62;68.90;98841.44;6180292;23;20024;-88
2023/09/21 03:10:21;;;;;;;5.82;2.70;;;;;;;17.66;68.71;98851.56;6179002;23;20325;-87
2023/09/21 03:12:48;;;;;;;2.83;2.35;;;;;;;17.67;68.70;98850.50;6151029;23;20013;-89
2023/09/21 03:15:22;;;;;;;5.00;2.28;;;;;;;17.65;69.14;98849.06;6154384;23;20453;-86
2023/09/21 03:17:54;;;;;;;3.53;2.50;;;;;;;17.66;69.41;98843.50;6179428;23;20021;-86
2023/09/21 03:20:29;;;;;;;6.00;2.50;;;;;;;17.67;69.78;98834.41;6155561;23;20096;-86
2023/09/21 03:22:57;;;;;;;2.95;2.22;;;;;;;17.64;69.98;98836.69;6203380;23;20028;-86
2023/09/21 03:25:31;;;;;;;6.38;2.63;;;;;;;17.62;69.87;98831.50;6178378;23;20028;-88
2023/09/21 03:28:00;;;;;;;5.55;2.42;;;;;;;17.63;69.92;98832.34;6179964;23;20087;-85
2023/09/21 03:30:27;;;;;;;5.57;2.65;;;;;;;17.62;69.90;98828.81;6153411;23;20024;-86
2023/09/21 03:32:54;;;;;;;4.05;2.50;;;;;;;17.65;69.54;98830.28;6154875;23;20036;-85
2023/09/21 03:35:26;;;;;;;3.85;2.47;;;;;;;17.65;69.88;98831.09;6179384;23;20021;-84
2023/09/21 03:37:54;;;;;;;3.70;2.58;;;;;;;17.62;70.16;98819.97;6204748;23;20470;-85
2023/09/21 03:40:21;;;;;;;4.65;2.28;;;;;;;17.62;70.37;98817.28;6178735;23;20028;-87
2023/09/21 03:42:47;;;;;;;3.75;2.58;;;;;;;17.63;70.28;98813.53;6204127;23;20019;-85
2023/09/21 03:45:16;;;;;;;6.85;2.80;;;;;;;17.63;70.37;98809.03;6154431;23;20337;-86
2023/09/21 03:47:43;;;;;;;2.85;2.50;;;;;;;17.61;70.64;98811.09;6177396;23;20027;-89
2023/09/21 03:50:12;;;;;;;7.82;2.90;;;;;;;17.60;70.55;98808.59;6087608;23;20083;-89
2023/09/21 03:52:40;;;;;;;7.93;2.88;;;;;;;17.61;70.81;98805.72;6143312;23;20074;-91
2023/09/21 03:55:09;;;;;;;7.10;2.90;;;;;;;17.57;71.09;98810.66;6130414;23;20095;-88
2023/09/21 03:57:37;;;;;;;3.63;2.60;;;;;;;17.61;71.13;98808.41;6165131;23;20521;-90
2023/09/21 04:02:53;;;;;;;3.53;2.70;;;;;;;17.58;71.22;98808.81;6157291;23;20106;-88
2023/09/21 04:05:24;;;;;;;5.30;2.17;;;;;;;17.56;71.71;98802.81;6129866;23;20035;-87
2023/09/21 04:07:51;;;;;;;5.13;2.58;;;;;;;17.60;71.28;98805.91;6177861;23;20052;-88
2023/09/21 04:10:18;;;;;;;7.53;2.78;;;;;;;17.58;71.50;98806.94;6177832;23;20085;-86
2023/09/21 04:12:45;;;;;;;4.20;2.53;;;;;;;17.60;71.52;98801.34;6203346;23;20024;-84
2023/09/21 04:15:12;;;;;;;4.57;2.40;;;;;;;17.63;71.55;98805.50;6179596;23;20024;-85
2023/09/21 04:17:39;;;;;;;10.63;3.13;;;;;;;17.58;71.66;98804.25;6203903;23;20025;-86
2023/09/21 04:20:15;;;;;;;5.28;2.80;;;;;;;17.59;71.94;98805.09;6153304;23;20024;-87
2023/09/21 04:22:43;;;;;;;5.55;2.72;;;;;;;17.57;71.93;98794.53;6161038;23;20029;-86
2023/09/21 04:25:14;;;;;;;4.43;2.70;;;;;;;17.61;71.75;98802.22;6163987;23;20100;-88
2023/09/21 04:27:42;;;;;;;8.20;3.28;;;;;;;17.61;71.53;98794.97;6152565;23;20027;-89
2023/09/21 04:30:14;;;;;;;4.00;3.10;;;;;;;17.60;71.77;98795.16;6129966;23;20025;-89
2023/09/21 04:32:46;;;;;;;4.50;2.78;;;;;;;17.55;72.42;98799.31;6152525;23;20021;-86
2023/09/21 04:35:15;;;;;;;5.90;2.73;;;;;;;17.58;72.17;98800.75;6176337;23;20040;-89
2023/09/21 04:37:51;;;;;;;3.55;2.50;;;;;;;17.49;72.30;98793.94;6155940;23;20977;-90
2023/09/21 04:40:19;;;;;;;4.97;2.75;;;;;;;17.58;72.35;98800.75;6179473;23;20036;-88
2023/09/21 04:42:47;;;;;;;3.95;2.92;;;;;;;17.58;72.75;98792.72;6155969;23;20028;-89
2023/09/21 04:45:19;;;;;;;3.55;2.53;;;;;;;17.56;72.74;98790.22;6181339;23;20099;-86
2023/09/21 04:47:53;;;;;;;4.88;2.80;;;;;;;17.58;72.85;98796.22;6182549;23;20081;-88
2023/09/21 04:50:21;;;;;;;4.57;2.65;;;;;;;17.57;73.24;98793.72;6156494;23;20086;-87
2023/09/21 04:52:48;;;;;;;4.72;2.67;;;;;;;17.58;73.48;98788.16;6181597;23;20379;-88
2023/09/21 04:55:18;;;;;;;4.63;2.65;;;;;;;17.56;73.76;98789.41;6153035;23;20025;-88
2023/09/21 04:57:47;;;;;;;6.38;2.55;;;;;;;17.55;74.06;98793.09;6181126;23;20028;-87
2023/09/21 05:00:15;;;;;;;5.75;2.97;;;;;;;17.55;74.03;98785.91;6154885;23;20540;-88
2023/09/21 05:02:44;;;;;;;4.80;3.03;;;;;;;17.55;74.13;98788.59;6156237;23;20095;-88
2023/09/21 05:05:17;;;;;;;6.60;3.25;;;;;;;17.55;74.35;98785.91;6180738;23;20032;-88
2023/09/21 05:07:44;;;;;;;3.25;2.25;;;;;;;17.53;74.63;98779.91;6180285;23;20020;-87
2023/09/21 05:10:14;;;;;;;8.30;2.75;;;;;;;17.55;74.69;98785.91;6155359;23;20448;-88
2023/09/21 05:12:41;;;;;;;4.53;3.00;;;;;;;17.54;74.85;98778.84;6132009;23;20021;-88
2023/09/21 05:15:11;;;;;;;4.50;2.83;;;;;;;17.54;74.85;98788.78;6155460;23;20031;-87
2023/09/21 05:17:37;;;;;;;6.40;2.65;;;;;;;17.51;75.15;98781.13;6180484;23;20336;-88
2023/09/21 05:20:06;;;;;;;5.63;2.95;;;;;;;17.55;75.34;98790.41;6205661;23;20032;-89
2023/09/21 05:22:34;;;;;;;5.25;2.55;;;;;;;17.54;75.47;98780.72;6205670;23;20071;-87
2023/09/21 05:25:05;;;;;;;4.53;3.00;;;;;;;17.54;75.57;98781.53;6205776;23;20079;-88
2023/09/21 05:27:32;;;;;;;6.50;3.10;;;;;;;17.54;75.92;98780.72;6229669;23;20453;-87
2023/09/21 05:30:00;;;;;;;4.40;2.58;;;;;;;17.54;75.88;98778.03;6205582;23;20067;-88
2023/09/21 05:32:32;;;;;;;4.28;2.55;;;;;;;17.53;75.77;98774.53;6204664;23;20773;-88
2023/09/21 05:35:05;;;;;;;4.18;2.60;;;;;;;17.52;76.09;98780.91;6156274;23;20020;-87
2023/09/21 05:37:32;;;;;;;5.32;2.65;;;;;;;17.49;76.21;98773.28;6180835;23;20407;-88
2023/09/21 05:39:59;;;;;;;5.13;2.47;;;;;;;17.53;76.01;98779.91;6179691;23;20329;-89
2023/09/21 05:42:26;;;;;;;7.60;3.00;;;;;;;17.55;76.31;98780.53;6180309;23;20028;-88
2023/09/21 05:44:53;;;;;;;4.85;2.75;;;;;;;17.56;76.40;98779.47;6154888;23;20087;-88
2023/09/21 05:47:19;;;;;;;3.65;2.53;;;;;;;17.56;76.57;98779.47;6180152;23;20522;-88
2023/09/21 05:49:46;;;;;;;3.80;2.63;;;;;;;17.57;76.84;98781.13;6179893;23;20392;-89
2023/09/21 05:52:13;;;;;;;5.32;3.17;;;;;;;17.56;77.07;98779.47;6130832;23;20444;-88
2023/09/21 05:54:42;;;;;;;5.22;2.75;;;;;;;17.56;76.63;98770.63;6155966;23;20016;-89
2023/09/21 05:57:10;;;;;;;5.38;2.75;;;;;;;17.57;77.06;98774.94;6180438;23;20024;-88
2023/09/21 05:59:38;;;;;;;6.82;3.17;;;;;;;17.58;76.54;98774.75;6155161;23;20104;-88
2023/09/21 06:02:07;;;;;;;5.38;3.13;;;;;;;17.58;76.74;98766.69;6154345;23;20024;-89
2023/09/21 06:04:34;;;;;;;3.78;2.50;;;;;;;17.59;76.90;98770.19;6180642;23;20181;-88
2023/09/21 06:07:02;;;;;;;5.68;3.30;;;;;;;17.60;76.93;98765.63;6155922;23;20091;-89
2023/09/21 06:09:29;;;;;;;6.00;3.03;;;;;;;17.61;77.19;98778.88;6154847;23;20021;-89
2023/09/21 06:11:56;;;;;;;5.63;3.15;;;;;;;17.60;77.33;98763.78;6204427;23;20017;-87
2023/09/21 06:14:23;;;;;;;4.90;3.17;;;;;;;17.59;76.99;98759.44;6155437;23;20021;-88
2023/09/21 06:16:51;;;;;;;5.32;3.33;;;;;;;17.61;77.30;98768.13;6205155;23;20020;-89
2023/09/21 06:19:19;;;;;;;5.68;2.50;;;;;;;17.62;77.65;98758.22;6130191;23;20048;-88
2023/09/21 06:21:48;;;;;;;4.25;2.60;;;;;;;17.64;77.69;98764.22;6205296;23;20063;-87
2023/09/21 06:24:15;;;;;;;3.38;2.70;;;;;;;17.61;77.79;98759.25;6155189;23;20713;-88
2023/09/21 06:26:42;;;;;;;5.38;2.95;;;;;;;17.63;78.01;98762.53;6179687;23;20024;-88
2023/09/21 06:29:10;;;;;;;4.38;3.13;;;;;;;17.61;77.75;98756.56;6179604;23;20332;-88
2023/09/21 06:31:37;;;;;;;5.07;3.17;;;;;;;17.60;77.27;98763.78;6181430;23;20029;-88
2023/09/21 06:34:07;;;;;;;3.83;2.80;;;;;;;17.61;77.11;98759.25;6179843;23;20016;-87
2023/09/21 06:36:37;;;;;;;5.05;2.70;;;;;;;17.62;77.37;98763.59;6180868;23;20076;-89
2023/09/21 06:39:08;;;;;;;3.95;2.80;;;;;;;17.62;78.24;98760.91;6179812;23;20322;-88
2023/09/21 06:41:37;;;;;;;8.90;3.22;;;;;;;17.60;77.71;98758.41;6180223;23;20400;-89
2023/09/21 06:44:04;;;;;;;5.22;2.50;;;;;;;17.63;77.61;98765.22;6154711;23;20021;-88
2023/09/21 06:46:31;;;;;;;4.55;2.83;;;;;;;17.63;77.75;98758.00;6202861;23;25450;-88
2023/09/21 06:48:58;;;;;;;5.07;3.10;;;;;;;17.60;77.83;98753.03;6155052;23;20015;-88
2023/09/21 06:51:27;;;;;;;6.50;3.03;;;;;;;17.59;77.68;98746.03;6180032;23;20039;-88
2023/09/21 06:53:54;;;;;;;5.90;3.53;;;;;;;17.61;77.72;98759.25;6179223;23;20070;-87
2023/09/21 06:56:21;;;;;;;7.15;3.58;;;;;;;17.60;78.03;98760.28;6154226;23;20040;-88
2023/09/21 06:58:49;;;;;;;6.05;3.63;;;;;;;17.59;78.21;98762.13;6154965;23;20020;-88
2023/09/21 07:01:15;;;;;;;8.93;3.53;;;;;;;17.60;78.66;98754.91;6178771;23;20032;-88
2023/09/21 07:03:43;;;;;;;5.47;3.08;;;;;;;17.61;78.83;98765.44;6179580;23;20340;-89
2023/09/21 07:06:10;;;;;;;6.00;3.90;;;;;;;17.60;78.93;98760.28;6179541;23;20344;-88
2023/09/21 07:08:37;;;;;;;6.53;3.22;;;;;;;17.65;79.11;98768.53;6179247;23;20024;-88
2023/09/21 07:11:05;;;;;;;7.18;3.83;;;;;;;17.63;79.00;98766.06;6179270;23;20112;-88
2023/09/21 07:13:32;;;;;;;9.13;3.85;;;;;;;17.63;79.66;98766.06;6179168;23;20009;-88
2023/09/21 07:15:59;;;;;;;6.30;3.75;;;;;;;17.66;79.92;98767.50;6179685;23;20017;-88
2023/09/21 07:18:27;;;;;;;6.80;3.95;;;;;;;17.68;79.99;98760.06;6179346;23;20032;-89
2023/09/21 07:20:54;;;;;;;7.40;4.30;;;;;;;17.69;80.22;98757.19;6179345;23;20020;-89
2023/09/21 07:23:21;;;;;;;9.27;5.45;;;;;;;17.71;80.22;98752.44;6154558;23;20096;-88
2023/09/21 07:25:49;;;;;;;11.68;5.00;;;;;;;17.71;80.23;98738.19;6130011;23;20400;-88
2023/09/21 07:28:16;;;;;;;5.20;3.75;;;;;;;17.72;80.20;98734.44;6179713;23;20021;-88
2023/09/21 07:30:43;;;;;;;6.78;3.45;;;;;;;17.75;80.16;98731.34;6178732;23;20062;-89
2023/09/21 07:33:10;;;;;;;5.80;3.28;;;;;;;17.76;80.25;98724.97;6178939;23;20200;-88
2023/09/21 07:35:37;;;;;;;8.38;3.85;;;;;;;17.78;80.38;98718.34;6204240;23;20016;-88
2023/09/21 07:38:04;;;;;;;6.50;4.22;;;;;;;17.78;80.06;98706.75;6179704;23;20392;-88
2023/09/21 07:40:31;;;;;;;5.07;4.10;;;;;;;17.80;80.52;98704.72;6179982;23;20020;-89
2023/09/21 07:42:58;;;;;;;8.63;4.00;;;;;;;17.83;80.50;98704.28;6154230;23;20022;-89
2023/09/21 07:45:25;;;;;;;6.15;3.65;;;;;;;17.85;80.98;98710.28;6179518;23;20310;-88
2023/09/21 07:47:54;;;;;;;5.07;3.50;;;;;;;17.88;81.37;98715.22;6179158;23;20107;-88
2023/09/21 07:50:26;;;;;;;7.43;3.70;;;;;;;17.90;81.93;98710.47;6179108;23;20016;-90
2023/09/21 07:52:56;;;;;;;4.43;3.28;;;;;;;17.93;82.11;98714.59;6180587;23;20083;-89
2023/09/21 07:55:23;;;;;;;5.88;3.28;;;;;;;17.97;82.29;98715.84;6204910;23;20020;-89
2023/09/21 07:57:50;;;;;;;6.85;4.10;;;;;;;17.98;82.28;98706.75;6204123;23;20040;-87
2023/09/21 08:00:18;;;;;;;8.73;3.95;;;;;;;17.99;82.35;98706.53;6180480;23;20096;-88
2023/09/21 08:02:45;;;;;;;6.70;3.60;;;;;;;18.03;82.63;98701.56;6204490;23;20489;-88
2023/09/21 08:05:12;;;;;;;6.20;3.55;;;;;;;18.07;82.58;98701.97;6178205;23;20024;-88
2023/09/21 08:07:40;;;;;;;6.15;3.22;;;;;;;18.06;82.40;98689.56;6155303;23;20056;-89
2023/09/21 08:10:10;;;;;;;6.32;3.28;;;;;;;18.10;82.38;98688.94;6155587;23;20334;-88
2023/09/21 08:12:38;;;;;;;5.18;3.70;;;;;;;18.12;82.69;98694.94;6132278;23;20336;-88
2023/09/21 08:15:11;;;;;;;7.07;3.63;;;;;;;18.12;82.20;98686.88;6155902;23;20090;-88
2023/09/21 08:17:39;;;;;;;5.45;3.75;;;;;;;18.15;82.08;98682.94;6181981;23;20048;-88
2023/09/21 08:20:10;;;;;;;6.78;4.13;;;;;;;18.14;81.65;98678.56;6205175;23;20075;-88
2023/09/21 08:22:37;;;;;;;5.28;3.75;;;;;;;18.16;81.46;98677.31;6181886;23;20024;-88
2023/09/21 08:25:08;;;;;;;4.60;3.25;;;;;;;18.18;81.81;98680.63;6156352;23;20444;-88
2023/09/21 08:27:35;;;;;;;3.55;3.17;;;;;;;18.20;82.17;98675.06;6131947;23;22549;-88
2023/09/21 08:30:04;;;;;;;5.53;3.88;;;;;;;18.22;82.33;98671.13;6156694;23;20012;-89
2023/09/21 08:32:32;;;;;;;5.60;3.53;;;;;;;18.26;82.40;98670.69;6181306;23;20031;-88
2023/09/21 08:35:00;;;;;;;5.70;3.50;;;;;;;18.27;82.46;98673.16;6206447;23;20024;-88
2023/09/21 08:37:28;;;;;;;5.45;3.38;;;;;;;18.29;82.60;98676.44;6156815;23;20048;-88
2023/09/21 08:39:55;;;;;;;6.63;3.22;;;;;;;18.32;82.42;98688.63;6208843;23;20028;-88
2023/09/21 08:42:23;;;;;;;4.82;3.28;;;;;;;18.32;82.55;98681.41;6156516;23;20023;-88
2023/09/21 08:44:50;;;;;;;8.02;3.95;;;;;;;18.35;82.47;98677.47;6206604;23;20020;-88
2023/09/21 08:47:17;;;;;;;4.80;3.60;;;;;;;18.38;82.47;98685.09;6181176;23;20017;-88
2023/09/21 08:49:47;;;;;;;6.80;3.88;;;;;;;18.36;82.55;98681.78;6206084;23;20065;-87
2023/09/21 08:52:14;;;;;;;4.30;2.97;;;;;;;18.41;82.71;98690.03;6205893;23;20461;-88
2023/09/21 08:54:42;;;;;;;5.43;3.30;;;;;;;18.43;82.49;98686.09;6205693;23;20064;-87
2023/09/21 08:57:11;;;;;;;3.88;2.88;;;;;;;18.46;82.72;98687.53;6231291;23;20019;-88
2023/09/21 08:59:41;;;;;;;8.20;4.07;;;;;;;18.49;82.97;98680.91;6205685;23;20013;-88
2023/09/21 09:02:11;;;;;;;4.88;3.33;;;;;;;18.56;83.12;98681.69;6206120;23;20090;-88
2023/09/21 09:04:42;;;;;;;4.43;3.30;;;;;;;18.54;83.05;98679.22;6181206;23;20070;-89
2023/09/21 09:07:12;;;;;;;4.18;3.47;;;;;;;18.58;82.99;98682.31;6179892;23;20031;-88
2023/09/21 09:09:39;;;;;;;3.60;2.90;;;;;;;18.60;82.61;98673.00;6181082;23;20082;-88
2023/09/21 09:12:36;;;;;;;4.88;2.95;;;;;;;18.56;83.86;98666.38;6155809;23;20029;-88
2023/09/21 09:15:05;;;;;;;3.70;2.90;;;;;;;18.65;82.73;98656.22;6162279;23;20023;-88
2023/09/21 09:17:32;;;;;;;5.70;2.90;;;;;;;18.68;82.75;98652.25;6181099;23;20027;-88
2023/09/21 09:20:03;;;;;;;4.40;3.30;;;;;;;18.70;83.09;98642.09;6180004;23;20083;-88
2023/09/21 09:22:31;;;;;;;5.15;3.30;;;;;;;18.70;83.26;98637.56;6156453;23;20079;-88
2023/09/21 09:25:06;;;;;;;8.10;3.35;;;;;;;18.70;83.12;98636.72;6179715;23;20445;-88
2023/09/21 09:27:34;;;;;;;6.25;3.20;;;;;;;18.75;82.92;98629.69;6155499;23;20048;-88
2023/09/21 09:30:04;;;;;;;5.28;3.20;;;;;;;18.76;83.03;98627.81;6156613;23;20522;-88
2023/09/21 09:32:41;;;;;;;7.00;3.58;;;;;;;18.78;82.83;98620.38;6156200;23;20340;-88
2023/09/21 09:35:13;;;;;;;4.50;2.70;;;;;;;18.80;83.23;98623.63;6181480;23;20024;-88
2023/09/21 09:37:42;;;;;;;4.30;3.10;;;;;;;18.83;83.37;98621.34;6180703;23;20074;-88
2023/09/21 09:40:23;;;;;;;3.85;2.75;;;;;;;18.83;82.92;98617.84;6155485;23;20028;-88
2023/09/21 09:42:54;;;;;;;5.65;3.10;;;;;;;18.87;82.56;98616.34;6157974;23;20012;-89
2023/09/21 09:45:25;;;;;;;3.80;2.28;;;;;;;18.88;82.71;98609.94;6204689;23;20027;-89
2023/09/21 09:47:56;;;;;;;5.75;2.50;;;;;;;18.92;82.69;98607.63;6180363;23;20032;-87
2023/09/21 09:50:24;;;;;;;5.30;2.50;;;;;;;18.92;82.83;98608.44;6179910;23;20333;-88
2023/09/21 09:53:01;;;;;;;3.33;2.75;;;;;;;18.94;82.11;98609.06;6154666;23;20020;-88
2023/09/21 09:55:31;;;;;;;3.97;2.80;;;;;;;18.96;81.47;98606.16;6154502;23;20044;-88
2023/09/21 09:57:59;;;;;;;6.40;2.58;;;;;;;18.97;81.24;98595.16;6155407;23;20017;-88
2023/09/21 10:00:27;;;;;;;4.15;2.40;;;;;;;19.02;81.91;98595.31;6155531;23;20458;-89
2023/09/21 10:02:56;;;;;;;3.88;2.53;;;;;;;19.03;82.25;98590.75;6179388;23;20095;-89
2023/09/21 10:05:26;;;;;;;3.35;2.63;;;;;;;19.06;82.37;98588.47;6130667;23;20051;-88
2023/09/21 10:08:00;;;;;;;4.15;2.95;;;;;;;19.05;82.28;98596.75;6180653;23;20393;-88
2023/09/21 10:10:32;;;;;;;2.88;2.47;;;;;;;19.09;82.20;98589.88;6179513;23;20052;-88
2023/09/21 10:12:59;;;;;;;3.58;2.78;;;;;;;19.13;82.37;98585.69;6179895;23;20779;-88
2023/09/21 10:15:26;;;;;;;5.15;2.72;;;;;;;19.16;82.51;98585.28;6204033;23;20096;-88
2023/09/21 10:17:57;;;;;;;5.03;2.67;;;;;;;19.21;82.18;98595.34;6179551;23;20020;-89
2023/09/21 10:20:27;;;;;;;6.53;2.95;;;;;;;19.24;82.29;98589.53;6204517;23;20020;-89
2023/09/21 10:22:55;;;;;;;4.38;2.80;;;;;;;19.30;81.90;98585.94;6230118;23;20070;-88
2023/09/21 10:25:45;;;;;;;4.15;2.90;;;;;;;19.26;82.13;98579.38;6204828;23;20025;-88
2023/09/21 10:28:27;;;;;;;6.85;3.25;;;;;;;19.36;82.23;98568.06;6178907;23;20047;-87
2023/09/21 10:30:55;;;;;;;4.40;2.92;;;;;;;19.42;82.38;98562.63;6204430;23;20507;-88
2023/09/21 10:33:25;;;;;;;4.32;2.80;;;;;;;19.45;81.75;98555.97;6179450;23;20025;-88
2023/09/21 10:35:52;;;;;;;7.13;2.83;;;;;;;19.47;80.88;98557.41;6180933;23;20020;-88
2023/09/21 10:38:19;;;;;;;3.25;2.50;;;;;;;19.52;80.88;98559.44;6204428;23;20453;-88
2023/09/21 10:40:46;;;;;;;5.25;2.60;;;;;;;19.57;81.21;98553.38;6205418;23;20012;-89
2023/09/21 10:43:37;;;;;;;3.90;2.55;;;;;;;19.57;79.98;98546.09;6204498;23;20032;-88
2023/09/21 10:46:17;;;;;;;3.20;2.58;;;;;;;19.62;79.24;98540.88;6179832;23;20020;-88
2023/09/21 10:48:57;;;;;;;4.78;2.80;;;;;;;19.70;79.40;98540.59;6229367;23;20121;-89
2023/09/21 10:51:25;;;;;;;4.72;2.63;;;;;;;19.72;79.53;98535.81;6178577;23;20321;-87
2023/09/21 10:53:54;;;;;;;3.50;2.67;;;;;;;19.75;79.49;98539.09;6179400;23;20432;-87
2023/09/21 10:56:23;;;;;;;3.45;2.50;;;;;;;19.76;79.62;98529.94;6204577;23;20033;-88
2023/09/21 10:58:50;;;;;;;3.15;2.03;;;;;;;19.78;79.76;98525.97;6205621;23;20381;-88
2023/09/21 11:01:16;;;;;;;5.95;2.33;;;;;;;19.82;79.43;98529.88;6179449;23;20036;-88
2023/09/21 11:03:46;;;;;;;2.67;2.28;;;;;;;19.84;79.38;98525.06;6204921;23;20051;-88
2023/09/21 11:06:12;;;;;;;2.63;2.20;;;;;;;19.92;78.87;98523.91;6155299;23;20457;-88
2023/09/21 11:08:40;;;;;;;3.03;2.15;;;;;;;19.94;78.70;98519.13;6205068;23;20086;-88
2023/09/21 11:11:07;;;;;;;4.00;2.50;;;;;;;20.01;79.37;98521.75;6178306;23;20479;-88
2023/09/21 11:13:34;;;;;;;3.92;2.30;;;;;;;20.03;78.76;98516.94;6154598;23;20016;-86
2023/09/21 11:16:02;;;;;;;5.10;2.97;;;;;;;20.09;79.75;98516.03;6230326;23;20083;-88
2023/09/21 11:18:29;;;;;;;3.65;2.38;;;;;;;20.13;79.60;98515.34;6204285;23;20023;-88
2023/09/21 11:20:56;;;;;;;3.45;2.63;;;;;;;20.16;79.41;98512.19;6180041;23;20082;-87
2023/09/21 11:23:23;;;;;;;5.28;2.58;;;;;;;20.17;79.54;98505.75;6179027;23;20023;-88
2023/09/21 11:25:50;;;;;;;3.67;2.63;;;;;;;20.19;79.27;98502.00;6179333;23;20028;-88
2023/09/21 11:28:20;;;;;;;6.28;2.55;;;;;;;20.20;79.71;98495.53;6203471;23;20103;-86
2023/09/21 11:30:50;;;;;;;5.05;2.78;;;;;;;20.23;79.52;98489.72;6179868;23;20075;-87
2023/09/21 11:33:19;;;;;;;5.22;2.72;;;;;;;20.25;79.46;98480.34;6179942;23;20040;-87
2023/09/21 11:35:46;;;;;;;3.35;2.72;;;;;;;20.28;79.27;98473.66;6204542;23;20024;-88
2023/09/21 11:38:14;;;;;;;6.50;2.53;;;;;;;20.31;79.89;98479.41;6206122;23;20055;-89
2023/09/21 11:40:41;;;;;;;4.38;2.28;;;;;;;20.34;79.80;98468.16;6130481;23;20012;-88
2023/09/21 11:43:12;;;;;;;6.63;4.40;;;;;;;20.34;79.62;98473.53;6204583;23;20027;-88
2023/09/21 11:45:39;;;;;;;3.40;2.40;;;;;;;20.32;80.30;98464.84;6229315;23;20075;-88